Time;durP1;ratioP1;P1;durP2;ratioP2;P2;SDS_P1;SDS_P2;PMS_P1;PMS_P2;Temp;Humidity;BMP_temperature;BMP_pressure;BME280_temperature;BME280_humidity;BME280_pressure;Samples;Min_cycle;Max_cycle;Signal;HPM_P1;HPM_P2
2021/10/06 00:01:59;;;;;;;5.90;1.90;;;12.00;90.80;;;;;;5075679;28;20176;-76
2021/10/06 00:04:25;;;;;;;3.07;1.37;;;11.90;91.30;;;;;;5074941;28;20180;-77
2021/10/06 00:06:50;;;;;;;3.73;1.40;;;11.80;91.50;;;;;;5074984;28;20285;-76
2021/10/06 00:09:16;;;;;;;1.93;1.20;;;11.70;91.90;;;;;;5066113;28;20219;-76
2021/10/06 00:11:42;;;;;;;6.43;1.43;;;11.70;92.00;;;;;;5074114;28;20235;-76
2021/10/06 00:14:11;;;;;;;4.83;1.50;;;11.60;92.10;;;;;;5073886;28;20211;-75
2021/10/06 00:16:37;;;;;;;2.10;1.57;;;11.60;92.30;;;;;;5074304;28;20425;-75
2021/10/06 00:19:03;;;;;;;4.07;1.60;;;11.60;92.40;;;;;;5072629;28;20540;-76
2021/10/06 00:21:29;;;;;;;6.23;1.80;;;11.60;92.40;;;;;;5065894;28;20429;-76
2021/10/06 00:23:55;;;;;;;1.87;1.37;;;11.60;92.50;;;;;;5072082;28;20430;-77
2021/10/06 00:26:20;;;;;;;3.47;1.43;;;11.60;92.40;;;;;;5074023;28;20179;-76
2021/10/06 00:28:46;;;;;;;1.70;1.23;;;11.60;92.40;;;;;;5073079;28;20211;-77
2021/10/06 00:31:12;;;;;;;1.53;1.33;;;11.60;92.40;;;;;;5074841;28;20237;-76
2021/10/06 00:33:38;;;;;;;5.33;1.40;;;11.60;92.40;;;;;;5072700;28;20677;-76
2021/10/06 00:36:04;;;;;;;2.70;1.57;;;11.60;92.30;;;;;;5074460;28;20191;-78
2021/10/06 00:38:30;;;;;;;3.30;1.50;;;11.50;92.40;;;;;;5065320;28;20438;-77
2021/10/06 00:40:56;;;;;;;1.80;1.13;;;11.40;92.80;;;;;;5074395;28;20429;-77
2021/10/06 00:43:23;;;;;;;2.20;1.60;;;11.40;92.90;;;;;;5074998;28;20263;-76
2021/10/06 00:45:49;;;;;;;1.60;1.30;;;11.30;93.10;;;;;;5075328;28;20180;-77
2021/10/06 00:48:15;;;;;;;3.43;1.17;;;11.20;93.40;;;;;;5076409;28;20499;-76
2021/10/06 00:50:41;;;;;;;2.60;1.40;;;11.20;93.60;;;;;;5075872;28;20460;-77
2021/10/06 00:53:07;;;;;;;2.03;1.20;;;11.10;93.70;;;;;;5063103;28;20494;-76
2021/10/06 00:55:35;;;;;;;10.73;2.73;;;11.00;93.90;;;;;;5070633;28;20456;-76
2021/10/06 00:58:01;;;;;;;3.37;1.40;;;11.10;93.70;;;;;;5075197;28;20423;-76
2021/10/06 01:00:27;;;;;;;1.87;1.40;;;11.10;93.50;;;;;;5072603;28;20452;-77
2021/10/06 01:02:52;;;;;;;2.30;1.40;;;11.10;93.40;;;;;;5071878;28;20191;-76
2021/10/06 01:05:18;;;;;;;1.50;1.20;;;11.10;93.40;;;;;;5072950;28;20184;-77
2021/10/06 01:07:44;;;;;;;3.20;1.47;;;11.20;93.20;;;;;;5072201;28;20257;-76
2021/10/06 01:10:11;;;;;;;2.63;1.10;;;11.10;93.10;;;;;;5064582;28;20263;-76
2021/10/06 01:12:39;;;;;;;3.67;1.20;;;11.10;92.80;;;;;;5070045;28;20214;-77
2021/10/06 01:15:08;;;;;;;4.23;1.47;;;11.10;92.70;;;;;;5072909;28;20425;-76
2021/10/06 01:17:34;;;;;;;2.93;0.93;;;11.20;92.60;;;;;;5070292;28;20466;-76
2021/10/06 01:20:00;;;;;;;2.10;1.30;;;11.10;92.50;;;;;;5073249;28;20449;-77
2021/10/06 01:22:26;;;;;;;9.40;1.33;;;11.10;92.50;;;;;;5080499;28;20421;-76
2021/10/06 01:24:51;;;;;;;2.80;1.57;;;11.20;92.30;;;;;;5080605;28;20437;-78
2021/10/06 01:27:17;;;;;;;3.73;1.30;;;11.30;92.00;;;;;;5082108;28;20207;-77
2021/10/06 01:29:43;;;;;;;2.00;1.30;;;11.30;91.90;;;;;;5084934;28;20208;-77
2021/10/06 01:32:17;;;;;;;4.20;1.50;;;11.30;91.80;;;;;;5076148;28;20200;-78
2021/10/06 01:34:54;;;;;;;3.37;1.50;;;11.30;91.70;;;;;;5080477;28;20204;-79
2021/10/06 01:37:20;;;;;;;2.20;1.37;;;11.30;91.70;;;;;;5097719;28;20501;-78
2021/10/06 01:39:45;;;;;;;2.63;1.50;;;11.30;91.50;;;;;;5080872;28;20465;-78
2021/10/06 01:42:11;;;;;;;2.20;1.30;;;11.40;90.90;;;;;;5078692;28;20508;-79
2021/10/06 01:44:37;;;;;;;2.37;1.33;;;11.40;90.90;;;;;;5075333;28;20666;-80
2021/10/06 01:47:03;;;;;;;1.77;1.23;;;11.40;91.00;;;;;;5077512;28;20271;-79
2021/10/06 01:49:28;;;;;;;2.70;1.20;;;11.40;90.90;;;;;;5068166;28;20236;-77
2021/10/06 01:51:54;;;;;;;2.87;1.10;;;11.40;90.60;;;;;;5074239;28;20462;-76
2021/10/06 01:54:20;;;;;;;3.30;1.20;;;11.40;90.70;;;;;;5071109;28;20603;-78
2021/10/06 01:56:46;;;;;;;3.83;1.20;;;11.40;90.80;;;;;;5072334;28;20253;-76
2021/10/06 01:59:12;;;;;;;6.30;1.30;;;11.40;90.70;;;;;;5067774;28;20683;-76
2021/10/06 02:01:38;;;;;;;2.67;1.47;;;11.30;90.90;;;;;;5071302;28;20501;-77
2021/10/06 02:04:03;;;;;;;4.90;2.00;;;11.40;90.80;;;;;;5070718;28;20724;-77
2021/10/06 02:06:29;;;;;;;1.87;1.33;;;11.40;90.70;;;;;;5071074;28;20180;-77
2021/10/06 02:08:55;;;;;;;4.53;1.40;;;11.30;90.90;;;;;;5072219;28;20578;-78
2021/10/06 02:11:21;;;;;;;2.13;1.10;;;11.30;91.20;;;;;;5072161;28;20517;-76
2021/10/06 02:13:46;;;;;;;4.60;1.40;;;11.30;91.40;;;;;;5071236;28;20200;-76
2021/10/06 02:16:12;;;;;;;2.57;1.10;;;11.30;91.40;;;;;;5071790;28;20182;-77
2021/10/06 02:18:38;;;;;;;1.50;1.33;;;11.30;91.60;;;;;;5073712;28;20215;-77
2021/10/06 02:21:04;;;;;;;5.40;1.33;;;11.30;91.80;;;;;;5073687;28;20175;-76
2021/10/06 02:23:30;;;;;;;5.03;2.30;;;11.30;91.60;;;;;;5071259;28;20662;-77
2021/10/06 02:25:55;;;;;;;2.17;1.20;;;11.20;91.50;;;;;;5073193;28;20212;-76
2021/10/06 02:28:21;;;;;;;2.17;1.30;;;11.20;91.60;;;;;;5076571;28;20209;-77
2021/10/06 02:30:49;;;;;;;9.27;1.40;;;11.20;91.60;;;;;;5074827;28;20206;-76
2021/10/06 02:33:15;;;;;;;9.13;1.37;;;11.20;91.60;;;;;;5076095;28;20223;-78
2021/10/06 02:35:40;;;;;;;2.20;1.40;;;11.20;91.50;;;;;;5072150;28;20422;-77
2021/10/06 02:38:06;;;;;;;1.13;1.00;;;11.10;91.40;;;;;;5063467;28;20192;-77
2021/10/06 02:40:32;;;;;;;3.07;1.60;;;11.10;91.70;;;;;;5071344;28;20226;-77
2021/10/06 02:42:58;;;;;;;5.03;1.63;;;11.10;91.80;;;;;;5071641;28;20233;-77
2021/10/06 02:45:24;;;;;;;3.10;1.10;;;11.10;91.80;;;;;;5071144;28;20515;-76
2021/10/06 02:47:50;;;;;;;2.10;1.30;;;11.10;91.50;;;;;;5071468;28;20513;-77
2021/10/06 02:50:20;;;;;;;3.90;1.20;;;11.10;91.10;;;;;;5068807;28;20751;-77
2021/10/06 02:52:46;;;;;;;2.23;1.10;;;11.20;90.70;;;;;;5071562;28;20511;-77
2021/10/06 02:55:11;;;;;;;6.73;1.40;;;11.30;90.30;;;;;;5059815;28;20422;-77
2021/10/06 02:57:38;;;;;;;4.10;1.30;;;11.30;90.50;;;;;;5071638;28;20183;-77
2021/10/06 03:00:07;;;;;;;2.40;1.20;;;11.20;90.80;;;;;;5064543;28;20210;-76
2021/10/06 03:02:33;;;;;;;2.40;1.30;;;11.30;91.10;;;;;;5067310;28;20476;-76
2021/10/06 03:04:58;;;;;;;2.77;1.50;;;11.20;91.40;;;;;;5068374;28;20442;-76
2021/10/06 03:07:24;;;;;;;5.00;1.50;;;11.10;91.80;;;;;;5068940;28;20423;-76
2021/10/06 03:09:50;;;;;;;2.90;1.90;;;11.00;92.20;;;;;;5068713;28;20585;-77
2021/10/06 03:12:16;;;;;;;3.73;1.73;;;10.90;92.60;;;;;;5068009;28;20245;-77
2021/10/06 03:14:41;;;;;;;3.37;1.40;;;10.90;92.80;;;;;;5064245;28;20257;-76
2021/10/06 03:17:07;;;;;;;3.33;1.70;;;10.80;93.10;;;;;;5067812;28;20280;-77
2021/10/06 03:19:33;;;;;;;5.20;1.60;;;10.70;93.20;;;;;;5071410;28;20747;-77
2021/10/06 03:21:59;;;;;;;2.70;1.47;;;10.70;93.40;;;;;;5070556;28;20198;-77
2021/10/06 03:24:24;;;;;;;3.20;1.63;;;10.70;93.30;;;;;;5069887;28;20187;-77
2021/10/06 03:26:50;;;;;;;1.80;1.37;;;10.70;93.30;;;;;;5072123;28;20195;-77
2021/10/06 03:29:16;;;;;;;2.13;1.30;;;10.70;93.20;;;;;;5069810;28;20204;-78
2021/10/06 03:31:42;;;;;;;6.13;1.70;;;10.80;93.40;;;;;;5070532;28;20628;-77
2021/10/06 03:34:07;;;;;;;3.80;1.70;;;10.80;93.40;;;;;;5068952;28;20195;-77
2021/10/06 03:36:33;;;;;;;2.00;1.53;;;10.80;93.40;;;;;;5069944;28;20584;-77
2021/10/06 03:38:59;;;;;;;5.73;1.90;;;10.90;93.40;;;;;;5069376;28;20265;-76
2021/10/06 03:41:25;;;;;;;3.80;1.43;;;10.90;93.10;;;;;;5069239;28;20183;-77
2021/10/06 03:43:50;;;;;;;3.27;1.60;;;10.90;93.00;;;;;;5070987;28;20184;-77
2021/10/06 03:46:16;;;;;;;3.07;1.80;;;10.90;92.90;;;;;;5071285;28;20266;-77
2021/10/06 03:48:44;;;;;;;2.90;1.63;;;10.90;92.70;;;;;;5069521;28;20280;-78
2021/10/06 03:51:09;;;;;;;5.20;1.60;;;10.90;92.70;;;;;;5070769;28;20179;-77
2021/10/06 03:53:35;;;;;;;2.80;1.60;;;11.00;92.70;;;;;;5069897;28;21006;-77
2021/10/06 03:56:01;;;;;;;2.53;1.50;;;11.00;92.60;;;;;;5068854;28;20507;-77
2021/10/06 03:58:27;;;;;;;2.40;1.77;;;11.00;92.40;;;;;;5070287;28;20180;-78
2021/10/06 04:00:52;;;;;;;3.87;1.90;;;10.90;92.50;;;;;;5070251;28;20184;-77
2021/10/06 04:03:18;;;;;;;5.33;2.03;;;10.90;92.60;;;;;;5067012;28;20179;-77
2021/10/06 04:05:44;;;;;;;3.80;1.83;;;10.80;92.80;;;;;;5068056;28;20192;-78
2021/10/06 04:08:10;;;;;;;2.23;1.60;;;10.70;93.00;;;;;;5074153;28;20192;-76
2021/10/06 04:10:36;;;;;;;5.13;1.63;;;10.70;93.20;;;;;;5074725;28;20200;-77
2021/10/06 04:13:02;;;;;;;4.17;1.80;;;10.70;93.20;;;;;;5068573;28;20470;-77
2021/10/06 04:15:27;;;;;;;3.87;2.17;;;10.60;93.30;;;;;;5071284;28;20825;-77
2021/10/06 04:17:53;;;;;;;2.17;1.83;;;10.70;93.30;;;;;;5070995;28;20218;-76
2021/10/06 04:20:19;;;;;;;2.77;1.60;;;10.60;93.30;;;;;;5069149;28;20218;-77
2021/10/06 04:22:45;;;;;;;3.30;1.97;;;10.60;93.50;;;;;;5070328;28;20587;-76
2021/10/06 04:25:11;;;;;;;4.00;1.73;;;10.50;93.60;;;;;;5073415;28;20723;-78
2021/10/06 04:27:37;;;;;;;4.83;2.00;;;10.40;93.80;;;;;;5074228;28;20465;-77
2021/10/06 04:30:05;;;;;;;4.73;2.30;;;10.40;94.10;;;;;;5064779;28;20454;-78
2021/10/06 04:32:31;;;;;;;2.87;1.60;;;10.40;94.10;;;;;;5076867;28;20474;-79
2021/10/06 04:34:57;;;;;;;6.07;2.23;;;10.30;94.10;;;;;;5075844;28;20475;-77
2021/10/06 04:37:23;;;;;;;2.50;1.63;;;10.40;94.20;;;;;;5077235;28;20666;-77
2021/10/06 04:39:48;;;;;;;3.40;1.60;;;10.40;94.10;;;;;;5080012;28;20204;-76
2021/10/06 04:42:14;;;;;;;2.20;1.50;;;10.40;93.80;;;;;;5077409;28;21012;-77
2021/10/06 04:44:40;;;;;;;2.53;1.40;;;10.40;93.60;;;;;;5074492;28;20191;-77
2021/10/06 04:47:06;;;;;;;3.20;1.27;;;10.50;93.40;;;;;;5080187;28;20195;-76
2021/10/06 04:49:31;;;;;;;3.10;1.30;;;10.50;93.10;;;;;;5079829;28;20210;-77
2021/10/06 04:51:57;;;;;;;3.27;1.27;;;10.60;92.80;;;;;;5078656;28;20281;-76
2021/10/06 04:54:23;;;;;;;2.00;1.40;;;10.70;92.30;;;;;;5078852;28;20216;-78
2021/10/06 04:56:48;;;;;;;1.73;1.30;;;10.70;92.10;;;;;;5074892;28;20179;-78
2021/10/06 04:59:14;;;;;;;2.90;1.33;;;10.70;91.90;;;;;;5072855;28;20303;-76
2021/10/06 05:01:40;;;;;;;2.43;1.20;;;10.70;91.70;;;;;;5079997;28;20180;-77
2021/10/06 05:04:06;;;;;;;1.87;1.30;;;10.80;91.60;;;;;;5076871;28;20196;-77
2021/10/06 05:06:32;;;;;;;5.23;1.50;;;10.80;91.50;;;;;;5074234;28;20195;-77
2021/10/06 05:08:58;;;;;;;3.27;1.10;;;10.80;91.30;;;;;;5072597;28;20300;-78
2021/10/06 05:11:24;;;;;;;3.73;1.30;;;10.90;90.90;;;;;;5073666;28;20419;-78
2021/10/06 05:13:50;;;;;;;5.40;1.40;;;11.00;90.50;;;;;;5073100;28;20218;-78
2021/10/06 05:16:16;;;;;;;1.60;1.27;;;11.00;90.60;;;;;;5073697;28;20757;-79
2021/10/06 05:18:42;;;;;;;4.47;1.40;;;11.10;90.40;;;;;;5072742;28;20438;-77
2021/10/06 05:21:08;;;;;;;4.60;1.67;;;11.10;90.40;;;;;;5072837;28;20460;-76
2021/10/06 05:23:34;;;;;;;2.90;1.60;;;11.20;90.20;;;;;;5074709;28;20520;-78
2021/10/06 05:26:00;;;;;;;2.47;1.43;;;11.10;90.10;;;;;;5075717;28;20631;-76
2021/10/06 05:28:25;;;;;;;3.10;2.03;;;11.10;90.10;;;;;;5067529;28;20191;-77
2021/10/06 05:30:51;;;;;;;3.17;1.90;;;11.20;89.50;;;;;;5072705;28;20192;-77
2021/10/06 05:33:17;;;;;;;5.67;1.67;;;11.30;89.20;;;;;;5073813;28;20238;-78
2021/10/06 05:35:43;;;;;;;2.30;1.30;;;11.20;89.00;;;;;;5073293;28;20201;-78
2021/10/06 05:38:09;;;;;;;2.57;1.40;;;11.20;88.90;;;;;;5071903;28;20195;-78
2021/10/06 05:40:34;;;;;;;2.03;1.40;;;11.20;89.20;;;;;;5073201;28;20215;-78
2021/10/06 05:43:00;;;;;;;3.40;1.53;;;11.20;89.30;;;;;;5073059;28;20422;-76
2021/10/06 05:45:26;;;;;;;3.50;1.43;;;11.20;89.20;;;;;;5074875;28;20669;-77
2021/10/06 05:47:52;;;;;;;2.00;1.40;;;11.30;89.00;;;;;;5076170;28;20215;-79
2021/10/06 05:50:18;;;;;;;4.63;1.60;;;11.20;89.20;;;;;;5072854;28;20204;-78
2021/10/06 05:52:44;;;;;;;4.40;1.87;;;11.20;89.60;;;;;;5072612;28;20216;-76
2021/10/06 05:55:10;;;;;;;2.37;1.83;;;11.20;89.70;;;;;;5060956;28;20426;-77
2021/10/06 05:57:36;;;;;;;2.70;1.83;;;11.20;89.60;;;;;;5072348;28;20460;-79
2021/10/06 06:00:04;;;;;;;3.20;2.07;;;11.30;89.70;;;;;;5072056;28;20438;-79
2021/10/06 06:02:30;;;;;;;3.70;1.90;;;11.20;90.10;;;;;;5065585;28;20449;-77
2021/10/06 06:04:55;;;;;;;5.23;1.70;;;11.20;90.30;;;;;;5071497;28;20472;-78
2021/10/06 06:07:21;;;;;;;3.40;2.10;;;11.20;90.40;;;;;;5066514;28;20339;-77
2021/10/06 06:09:47;;;;;;;3.57;1.40;;;11.10;90.00;;;;;;5066497;28;20227;-76
2021/10/06 06:12:12;;;;;;;3.33;1.63;;;11.10;90.20;;;;;;5066011;28;20235;-77
2021/10/06 06:14:40;;;;;;;2.40;1.37;;;11.10;89.70;;;;;;5071258;28;20180;-78
2021/10/06 06:17:07;;;;;;;5.53;1.50;;;11.10;89.60;;;;;;5070077;28;20180;-77
2021/10/06 06:19:33;;;;;;;3.20;1.60;;;11.10;89.60;;;;;;5070456;28;20449;-77
2021/10/06 06:21:59;;;;;;;3.00;1.63;;;11.20;89.50;;;;;;5069652;28;20421;-76
2021/10/06 06:24:26;;;;;;;2.13;1.50;;;11.20;89.50;;;;;;5073074;28;20422;-76
2021/10/06 06:26:53;;;;;;;3.00;1.50;;;11.20;89.30;;;;;;5071976;28;20946;-76
2021/10/06 06:29:20;;;;;;;3.47;1.60;;;11.20;89.50;;;;;;5072443;28;21046;-78
2021/10/06 06:31:46;;;;;;;5.33;2.37;;;11.10;89.30;;;;;;5058897;28;20431;-78
2021/10/06 06:34:11;;;;;;;1.80;1.30;;;11.00;89.60;;;;;;5071912;28;20429;-77
2021/10/06 06:36:37;;;;;;;6.10;1.90;;;11.00;89.50;;;;;;5075255;28;20434;-78
2021/10/06 06:39:04;;;;;;;4.30;1.80;;;11.00;89.60;;;;;;5076678;28;20219;-77
2021/10/06 06:41:29;;;;;;;2.13;1.20;;;11.10;89.30;;;;;;5073427;28;20189;-77
2021/10/06 06:43:55;;;;;;;2.67;1.77;;;11.10;89.50;;;;;;5078883;28;20452;-77
2021/10/06 06:46:21;;;;;;;3.40;1.33;;;11.10;89.30;;;;;;5071275;28;20192;-78
2021/10/06 06:48:47;;;;;;;4.90;1.70;;;11.10;89.60;;;;;;5061276;28;20446;-78
2021/10/06 06:51:14;;;;;;;5.33;1.67;;;11.10;89.00;;;;;;5077079;28;20191;-77
2021/10/06 06:53:39;;;;;;;7.70;2.17;;;11.10;89.30;;;;;;5073552;28;21058;-79
2021/10/06 06:56:05;;;;;;;4.53;1.80;;;11.00;89.30;;;;;;5074538;28;20426;-77
2021/10/06 06:58:31;;;;;;;3.70;1.53;;;11.00;89.30;;;;;;5071116;28;20177;-77
2021/10/06 07:00:56;;;;;;;3.73;1.37;;;11.00;89.20;;;;;;5067550;28;20187;-76
2021/10/06 07:03:22;;;;;;;4.87;2.23;;;11.00;89.20;;;;;;5073281;28;20233;-77
2021/10/06 07:05:48;;;;;;;3.40;1.47;;;11.00;89.20;;;;;;5072502;28;20610;-79
2021/10/06 07:08:14;;;;;;;7.60;1.90;;;11.10;88.60;;;;;;5073462;28;20495;-78
2021/10/06 07:10:41;;;;;;;5.20;1.50;;;11.10;88.60;;;;;;5072843;28;20472;-76
2021/10/06 07:13:07;;;;;;;2.87;1.70;;;11.10;88.70;;;;;;5071258;28;20462;-79
2021/10/06 07:15:32;;;;;;;3.00;1.40;;;11.00;88.90;;;;;;5072227;28;20430;-76
2021/10/06 07:17:59;;;;;;;3.60;1.63;;;11.10;88.70;;;;;;5071371;28;20183;-75
2021/10/06 07:20:25;;;;;;;3.03;1.57;;;11.10;88.40;;;;;;5069427;28;20196;-76
2021/10/06 07:22:51;;;;;;;7.20;1.73;;;11.10;88.40;;;;;;5070499;28;20418;-76
2021/10/06 07:25:17;;;;;;;3.30;1.30;;;11.10;88.40;;;;;;5071171;28;20478;-77
2021/10/06 07:27:43;;;;;;;4.93;1.50;;;11.10;88.30;;;;;;5072332;28;20440;-75
2021/10/06 07:30:10;;;;;;;3.23;1.70;;;11.10;88.30;;;;;;5070332;28;20561;-79
2021/10/06 07:32:36;;;;;;;2.20;1.50;;;11.20;88.40;;;;;;5071884;28;20469;-77
2021/10/06 07:35:02;;;;;;;6.63;2.37;;;11.20;88.10;;;;;;5065451;28;20465;-76
2021/10/06 07:37:28;;;;;;;1.93;1.40;;;11.30;88.10;;;;;;5062450;28;20464;-77
2021/10/06 07:39:54;;;;;;;2.67;1.47;;;11.30;87.70;;;;;;5069922;28;20467;-75
2021/10/06 07:42:20;;;;;;;5.83;1.57;;;11.40;87.40;;;;;;5071101;28;20191;-75
2021/10/06 07:44:46;;;;;;;7.23;2.00;;;11.40;87.30;;;;;;5066723;28;20666;-78
2021/10/06 07:47:13;;;;;;;4.00;1.40;;;11.50;87.00;;;;;;5070318;28;20190;-77
2021/10/06 07:49:39;;;;;;;3.70;1.50;;;11.60;86.80;;;;;;5065317;28;20504;-77
2021/10/06 07:52:05;;;;;;;4.20;1.57;;;11.80;85.50;;;;;;5071706;28;21051;-77
2021/10/06 07:54:31;;;;;;;6.70;1.87;;;11.80;85.30;;;;;;5070448;28;20422;-77
2021/10/06 07:56:57;;;;;;;5.13;1.87;;;12.00;84.60;;;;;;5071184;28;20517;-77
2021/10/06 07:59:23;;;;;;;4.70;2.87;;;12.10;84.10;;;;;;5073096;28;20484;-77
2021/10/06 08:01:49;;;;;;;4.00;2.03;;;12.20;83.60;;;;;;5076317;28;20240;-75
2021/10/06 08:04:14;;;;;;;3.50;1.50;;;12.30;82.80;;;;;;5075246;28;20506;-77
2021/10/06 08:06:40;;;;;;;2.30;1.50;;;12.30;81.90;;;;;;5074953;28;20274;-76
2021/10/06 08:09:06;;;;;;;5.60;2.37;;;12.40;82.20;;;;;;5069013;28;20674;-77
2021/10/06 08:11:34;;;;;;;2.40;1.50;;;12.50;82.20;;;;;;5075383;28;20568;-77
2021/10/06 08:14:00;;;;;;;4.53;2.00;;;12.50;81.80;;;;;;5073680;28;20555;-76
2021/10/06 08:16:26;;;;;;;2.70;1.50;;;12.60;81.40;;;;;;5076244;28;20418;-76
2021/10/06 08:18:51;;;;;;;3.03;1.80;;;12.50;81.50;;;;;;5075948;28;20755;-78
2021/10/06 08:21:17;;;;;;;6.87;2.13;;;12.60;81.40;;;;;;5074982;28;20199;-76
2021/10/06 08:23:43;;;;;;;4.53;1.80;;;12.70;81.20;;;;;;5077107;28;20682;-76
2021/10/06 08:26:09;;;;;;;5.20;1.63;;;12.80;80.00;;;;;;5074900;28;20271;-76
2021/10/06 08:28:34;;;;;;;3.00;1.50;;;12.90;79.60;;;;;;5075078;28;20259;-75
2021/10/06 08:31:00;;;;;;;8.90;1.87;;;12.90;79.30;;;;;;5077668;28;20717;-76
2021/10/06 08:33:26;;;;;;;4.00;1.70;;;13.00;79.00;;;;;;5078400;28;20207;-76
2021/10/06 08:35:52;;;;;;;4.10;1.90;;;13.00;78.90;;;;;;5076615;28;20227;-76
2021/10/06 08:38:18;;;;;;;4.03;1.70;;;13.10;78.90;;;;;;5078948;28;20945;-76
2021/10/06 08:40:44;;;;;;;5.40;1.50;;;13.10;77.60;;;;;;5073339;28;20223;-77
2021/10/06 08:43:11;;;;;;;7.50;1.70;;;13.10;76.70;;;;;;5075882;28;20418;-75
2021/10/06 08:45:38;;;;;;;8.20;1.60;;;13.00;76.70;;;;;;5073122;28;20191;-76
2021/10/06 08:48:06;;;;;;;5.37;2.07;;;12.90;76.40;;;;;;5071112;28;20996;-74
2021/10/06 08:50:32;;;;;;;3.00;1.50;;;12.90;77.30;;;;;;5072824;28;20449;-75
2021/10/06 08:52:58;;;;;;;6.93;1.90;;;12.80;78.60;;;;;;5072667;28;20458;-74
2021/10/06 08:55:30;;;;;;;8.03;2.03;;;12.80;79.20;;;;;;5074127;28;20783;-75
2021/10/06 08:58:06;;;;;;;3.03;1.67;;;12.80;79.00;;;;;;5073388;28;20771;-75
2021/10/06 09:00:52;;;;;;;5.33;1.73;;;12.80;79.20;;;;;;5073114;28;20442;-75
2021/10/06 09:03:29;;;;;;;4.50;1.40;;;12.80;80.80;;;;;;5071473;28;20449;-75
2021/10/06 09:06:03;;;;;;;6.80;1.90;;;12.70;82.70;;;;;;5074422;28;20418;-75
2021/10/06 09:08:30;;;;;;;3.83;1.77;;;12.60;83.80;;;;;;5073504;28;20448;-76
2021/10/06 09:10:56;;;;;;;2.97;1.47;;;12.60;84.30;;;;;;5072708;28;20509;-76
2021/10/06 09:13:28;;;;;;;5.67;1.97;;;12.70;83.40;;;;;;5072270;28;20472;-76
2021/10/06 09:15:54;;;;;;;3.93;1.83;;;12.80;83.10;;;;;;5072257;28;20411;-76
2021/10/06 09:18:21;;;;;;;7.50;2.40;;;12.90;83.80;;;;;;5071711;28;20935;-76
2021/10/06 09:20:48;;;;;;;5.77;1.73;;;13.00;81.20;;;;;;5071945;28;20424;-77
2021/10/06 09:23:17;;;;;;;3.03;1.63;;;13.00;80.30;;;;;;5072424;28;20457;-75
2021/10/06 09:25:56;;;;;;;4.80;1.30;;;13.10;79.70;;;;;;5070224;28;20430;-76
2021/10/06 09:28:33;;;;;;;3.50;1.57;;;13.20;78.00;;;;;;5060157;28;20947;-75
2021/10/06 09:31:16;;;;;;;3.60;1.50;;;13.30;77.40;;;;;;5062873;28;20433;-75
2021/10/06 09:33:53;;;;;;;4.33;1.50;;;13.50;76.50;;;;;;5070523;28;20465;-77
2021/10/06 09:36:19;;;;;;;4.50;1.70;;;13.70;76.50;;;;;;5071562;28;20425;-76
2021/10/06 09:38:44;;;;;;;1.83;1.30;;;13.80;73.60;;;;;;5071230;28;20454;-75
2021/10/06 09:41:36;;;;;;;3.50;1.33;;;13.90;74.20;;;;;;5070598;28;20221;-77
2021/10/06 09:44:08;;;;;;;4.50;1.53;;;14.10;71.80;;;;;;5063116;28;20234;-77
2021/10/06 09:46:55;;;;;;;2.30;1.30;;;14.30;70.10;;;;;;5072709;28;20501;-77
2021/10/06 09:49:38;;;;;;;3.80;1.30;;;14.20;70.50;;;;;;5071282;28;20956;-76
2021/10/06 09:52:16;;;;;;;4.77;1.23;;;14.30;70.50;;;;;;5070220;28;20458;-75
2021/10/06 09:54:50;;;;;;;2.40;1.40;;;14.30;70.20;;;;;;5069711;28;20414;-75
2021/10/06 09:57:33;;;;;;;3.00;1.60;;;14.40;70.80;;;;;;5069604;28;20456;-75
2021/10/06 10:00:07;;;;;;;3.87;1.80;;;14.60;70.20;;;;;;5064746;28;20538;-76
2021/10/06 10:02:34;;;;;;;2.07;1.40;;;14.80;68.90;;;;;;5068414;28;20468;-75
2021/10/06 10:05:00;;;;;;;6.73;1.80;;;14.50;70.50;;;;;;5069634;28;20429;-75
2021/10/06 10:07:32;;;;;;;9.23;1.63;;;14.10;71.10;;;;;;5070371;28;20461;-76
2021/10/06 10:09:58;;;;;;;15.13;1.73;;;14.00;72.60;;;;;;5071802;28;20488;-75
2021/10/06 10:12:26;;;;;;;6.63;2.00;;;13.60;75.70;;;;;;5063585;28;20477;-76
2021/10/06 10:14:53;;;;;;;5.50;1.27;;;13.10;80.50;;;;;;5069392;28;20849;-75
2021/10/06 10:17:20;;;;;;;2.33;1.30;;;12.80;83.10;;;;;;5057945;28;20423;-74
2021/10/06 10:19:53;;;;;;;3.77;1.13;;;12.70;84.90;;;;;;5062293;28;20935;-74
2021/10/06 10:22:20;;;;;;;3.13;1.30;;;12.60;82.50;;;;;;5067277;28;20467;-75
2021/10/06 10:24:51;;;;;;;3.90;1.70;;;12.50;84.60;;;;;;5069338;28;20475;-74
2021/10/06 10:27:20;;;;;;;13.10;2.87;;;12.50;85.90;;;;;;5063134;28;20818;-75
2021/10/06 10:29:51;;;;;;;3.40;1.60;;;12.90;85.50;;;;;;5067361;28;20472;-75
2021/10/06 10:32:26;;;;;;;4.00;2.17;;;13.30;84.90;;;;;;5068787;28;20461;-76
2021/10/06 10:35:04;;;;;;;16.10;3.33;;;13.80;82.70;;;;;;5067695;28;20434;-76
2021/10/06 10:37:45;;;;;;;4.07;1.80;;;14.30;79.70;;;;;;5084318;28;20434;-76
2021/10/06 10:40:32;;;;;;;4.93;2.20;;;14.60;77.60;;;;;;5061899;28;20462;-74
2021/10/06 10:43:00;;;;;;;3.63;1.30;;;15.20;76.80;;;;;;5067858;28;20516;-75
2021/10/06 10:45:44;;;;;;;3.77;1.23;;;15.80;74.50;;;;;;5070701;28;20428;-75
2021/10/06 10:48:20;;;;;;;8.37;1.47;;;16.60;70.80;;;;;;5070869;28;20429;-75
2021/10/06 10:50:45;;;;;;;2.20;1.03;;;16.80;68.00;;;;;;5063384;28;20805;-75
2021/10/06 10:53:38;;;;;;;8.00;2.37;;;16.50;68.80;;;;;;5058436;28;20469;-75
2021/10/06 10:56:04;;;;;;;6.60;2.00;;;15.90;69.50;;;;;;5069500;28;20188;-76
2021/10/06 10:58:32;;;;;;;2.80;1.20;;;14.90;74.90;;;;;;5066271;28;20421;-77
2021/10/06 11:01:06;;;;;;;15.03;2.53;;;14.00;76.20;;;;;;5069579;28;20203;-76
2021/10/06 11:04:07;;;;;;;5.43;1.10;;;13.60;78.60;;;;;;5062276;28;20425;-75
2021/10/06 11:06:37;;;;;;;2.53;1.00;;;13.30;79.90;;;;;;5068070;28;20426;-76
2021/10/06 11:09:32;;;;;;;4.03;1.40;;;13.20;81.10;;;;;;5067928;28;20492;-75
2021/10/06 11:12:07;;;;;;;4.53;1.50;;;13.60;81.80;;;;;;5063034;28;20426;-75
2021/10/06 11:14:37;;;;;;;3.73;1.47;;;14.10;79.60;;;;;;5064566;28;20419;-77
2021/10/06 11:17:06;;;;;;;4.17;1.70;;;14.70;78.90;;;;;;5064244;28;20425;-76
2021/10/06 11:19:49;;;;;;;2.70;1.43;;;15.10;76.50;;;;;;5058897;28;20434;-78
2021/10/06 11:22:24;;;;;;;4.10;1.27;;;15.20;75.20;;;;;;5069563;28;20414;-77
2021/10/06 11:25:05;;;;;;;5.70;1.53;;;15.20;74.20;;;;;;5071041;28;20509;-76
2021/10/06 11:27:50;;;;;;;3.83;1.67;;;14.90;74.30;;;;;;5071207;28;20458;-75
2021/10/06 11:30:17;;;;;;;5.43;1.27;;;14.50;75.40;;;;;;5071246;28;20461;-76
2021/10/06 11:32:53;;;;;;;6.63;2.73;;;14.30;74.50;;;;;;5071723;28;20505;-75
2021/10/06 11:35:20;;;;;;;2.93;1.80;;;14.30;76.70;;;;;;5077664;28;20441;-77
2021/10/06 11:37:46;;;;;;;8.67;2.10;;;14.60;75.20;;;;;;5077681;28;20442;-76
2021/10/06 11:40:16;;;;;;;3.00;1.53;;;15.10;74.90;;;;;;5071081;28;20449;-77
2021/10/06 11:42:43;;;;;;;3.83;1.50;;;15.30;73.60;;;;;;5080630;28;20375;-76
2021/10/06 11:45:18;;;;;;;5.07;1.50;;;15.30;73.50;;;;;;5077599;28;20443;-77
2021/10/06 11:47:44;;;;;;;4.03;1.30;;;15.50;73.30;;;;;;5077735;28;20421;-76
2021/10/06 11:50:10;;;;;;;3.80;1.33;;;15.70;71.70;;;;;;5074589;28;20441;-76
2021/10/06 11:52:36;;;;;;;5.67;1.80;;;16.10;67.00;;;;;;5076516;28;20454;-78
2021/10/06 11:55:01;;;;;;;7.10;1.70;;;16.40;67.20;;;;;;5077677;28;20427;-76
2021/10/06 11:57:28;;;;;;;3.43;1.50;;;16.80;64.20;;;;;;5078191;28;20288;-77
2021/10/06 11:59:53;;;;;;;4.17;1.70;;;17.00;61.60;;;;;;5074432;28;20444;-76
2021/10/06 12:02:23;;;;;;;4.70;1.40;;;17.10;62.80;;;;;;5075779;28;20425;-78
2021/10/06 12:04:51;;;;;;;2.17;1.17;;;17.00;58.80;;;;;;5074388;28;20186;-78
2021/10/06 12:07:21;;;;;;;4.17;1.40;;;17.10;58.90;;;;;;5069700;28;20440;-78
2021/10/06 12:10:01;;;;;;;3.43;1.40;;;16.80;59.70;;;;;;5071374;28;20451;-78
2021/10/06 12:12:33;;;;;;;3.70;1.27;;;16.80;59.90;;;;;;5064917;28;20466;-77
2021/10/06 12:15:01;;;;;;;2.53;1.40;;;16.80;59.30;;;;;;5076196;28;20416;-76
2021/10/06 12:17:28;;;;;;;3.53;1.50;;;16.80;60.30;;;;;;5074683;28;20416;-76
2021/10/06 12:20:05;;;;;;;1.80;1.10;;;16.40;61.70;;;;;;5075368;28;20535;-78
2021/10/06 12:22:40;;;;;;;3.23;1.40;;;15.80;65.00;;;;;;5075718;28;20489;-77
2021/10/06 12:25:11;;;;;;;6.17;1.73;;;15.20;67.90;;;;;;5077308;28;20417;-78
2021/10/06 12:27:40;;;;;;;7.63;1.87;;;14.90;71.30;;;;;;5068649;28;20924;-75
2021/10/06 12:30:12;;;;;;;3.60;1.90;;;13.90;77.80;;;;;;5083366;28;20442;-76
2021/10/06 12:32:41;;;;;;;3.20;1.70;;;13.40;81.70;;;;;;5094455;28;20468;-76
2021/10/06 12:35:39;;;;;;;1.70;1.20;;;13.20;85.50;;;;;;5081644;28;20421;-76
2021/10/06 12:38:05;;;;;;;3.73;1.40;;;12.70;85.30;;;;;;5076162;28;20450;-77
2021/10/06 12:40:40;;;;;;;2.13;1.40;;;12.60;85.90;;;;;;5074817;28;20434;-77
2021/10/06 12:43:30;;;;;;;1.80;1.30;;;12.80;87.70;;;;;;5074532;28;20183;-77
2021/10/06 12:46:21;;;;;;;2.40;1.20;;;13.20;86.20;;;;;;5074264;28;20487;-75
2021/10/06 12:48:52;;;;;;;1.93;1.23;;;13.90;86.00;;;;;;5067186;28;20457;-77
2021/10/06 12:51:24;;;;;;;3.17;1.30;;;14.40;78.70;;;;;;5078402;28;20501;-78